sensor_id;sensor_type;location;lat;lon;timestamp;pressure;altitude;pressure_sealevel;temperature
73673;BMP280;61972;19.480;-99.240;2023-04-09T00:02:19;77499.78;;;32.84
73673;BMP280;61972;19.480;-99.240;2023-04-09T00:21:59;77533.28;;;32.07
73673;BMP280;61972;19.480;-99.240;2023-04-09T00:24:26;77550.28;;;31.96
73673;BMP280;61972;19.480;-99.240;2023-04-09T00:26:54;77554.50;;;32.22
73673;BMP280;61972;19.480;-99.240;2023-04-09T00:29:24;77554.53;;;32.49
73673;BMP280;61972;19.480;-99.240;2023-04-09T00:31:50;77552.94;;;32.62
73673;BMP280;61972;19.480;-99.240;2023-04-09T00:34:16;77559.47;;;32.81
73673;BMP280;61972;19.480;-99.240;2023-04-09T00:36:42;77560.06;;;32.96
73673;BMP280;61972;19.480;-99.240;2023-04-09T00:39:12;77563.00;;;33.04
73673;BMP280;61972;19.480;-99.240;2023-04-09T00:41:51;77561.34;;;33.02
73673;BMP280;61972;19.480;-99.240;2023-04-09T00:44:29;77572.28;;;32.98
73673;BMP280;61972;19.480;-99.240;2023-04-09T00:46:58;77579.44;;;33.04
73673;BMP280;61972;19.480;-99.240;2023-04-09T00:49:25;77581.16;;;33.08
73673;BMP280;61972;19.480;-99.240;2023-04-09T00:51:52;77585.38;;;33.07
73673;BMP280;61972;19.480;-99.240;2023-04-09T00:54:18;77584.72;;;33.04
73673;BMP280;61972;19.480;-99.240;2023-04-09T00:56:45;77594.69;;;33.01
73673;BMP280;61972;19.480;-99.240;2023-04-09T00:59:11;77595.69;;;33.00
73673;BMP280;61972;19.480;-99.240;2023-04-09T01:01:38;77605.72;;;32.99
73673;BMP280;61972;19.480;-99.240;2023-04-09T01:04:04;77605.16;;;32.99
73673;BMP280;61972;19.480;-99.240;2023-04-09T01:07:19;77606.19;;;32.97
73673;BMP280;61972;19.480;-99.240;2023-04-09T01:09:49;77613.84;;;33.04
73673;BMP280;61972;19.480;-99.240;2023-04-09T01:12:44;77615.06;;;33.08
73673;BMP280;61972;19.480;-99.240;2023-04-09T01:15:16;77621.09;;;33.14
73673;BMP280;61972;19.480;-99.240;2023-04-09T01:17:51;77626.50;;;33.16
73673;BMP280;61972;19.480;-99.240;2023-04-09T01:20:28;77630.16;;;33.15
73673;BMP280;61972;19.480;-99.240;2023-04-09T01:25:44;77638.28;;;33.20
73673;BMP280;61972;19.480;-99.240;2023-04-09T01:31:03;77652.41;;;33.16
73673;BMP280;61972;19.480;-99.240;2023-04-09T01:33:31;77653.22;;;33.09
73673;BMP280;61972;19.480;-99.240;2023-04-09T01:35:59;77658.78;;;33.02
73673;BMP280;61972;19.480;-99.240;2023-04-09T01:38:26;77669.00;;;33.06
73673;BMP280;61972;19.480;-99.240;2023-04-09T01:40:55;77662.88;;;32.98
73673;BMP280;61972;19.480;-99.240;2023-04-09T01:43:25;77672.84;;;33.10
73673;BMP280;61972;19.480;-99.240;2023-04-09T01:45:53;77674.59;;;33.14
73673;BMP280;61972;19.480;-99.240;2023-04-09T01:48:23;77672.63;;;33.17
73673;BMP280;61972;19.480;-99.240;2023-04-09T01:50:50;77680.00;;;33.17
73673;BMP280;61972;19.480;-99.240;2023-04-09T01:53:19;77684.63;;;33.26
73673;BMP280;61972;19.480;-99.240;2023-04-09T01:55:46;77686.56;;;33.35
73673;BMP280;61972;19.480;-99.240;2023-04-09T01:58:35;77685.41;;;33.46
73673;BMP280;61972;19.480;-99.240;2023-04-09T02:01:08;77697.09;;;33.47
73673;BMP280;61972;19.480;-99.240;2023-04-09T02:03:54;77702.97;;;33.48
73673;BMP280;61972;19.480;-99.240;2023-04-09T02:09:08;77722.88;;;33.57
73673;BMP280;61972;19.480;-99.240;2023-04-09T02:11:37;77722.66;;;33.64
73673;BMP280;61972;19.480;-99.240;2023-04-09T02:14:06;77726.94;;;33.65
73673;BMP280;61972;19.480;-99.240;2023-04-09T02:16:36;77723.53;;;33.60
73673;BMP280;61972;19.480;-99.240;2023-04-09T02:19:03;77734.41;;;33.53
73673;BMP280;61972;19.480;-99.240;2023-04-09T02:21:29;77726.63;;;33.43
73673;BMP280;61972;19.480;-99.240;2023-04-09T02:23:56;77726.19;;;33.33
73673;BMP280;61972;19.480;-99.240;2023-04-09T02:32:19;77742.09;;;32.93
73673;BMP280;61972;19.480;-99.240;2023-04-09T02:37:56;77750.47;;;32.79
73673;BMP280;61972;19.480;-99.240;2023-04-09T02:40:23;77754.38;;;32.70
73673;BMP280;61972;19.480;-99.240;2023-04-09T02:42:50;77751.94;;;32.63
73673;BMP280;61972;19.480;-99.240;2023-04-09T02:45:16;77760.44;;;32.63
73673;BMP280;61972;19.480;-99.240;2023-04-09T02:47:42;77759.66;;;32.70
73673;BMP280;61972;19.480;-99.240;2023-04-09T02:50:08;77759.34;;;32.75
73673;BMP280;61972;19.480;-99.240;2023-04-09T02:52:35;77761.84;;;32.72
73673;BMP280;61972;19.480;-99.240;2023-04-09T02:55:01;77764.63;;;32.75
73673;BMP280;61972;19.480;-99.240;2023-04-09T02:57:27;77763.09;;;32.76
73673;BMP280;61972;19.480;-99.240;2023-04-09T02:59:54;77770.56;;;32.78
73673;BMP280;61972;19.480;-99.240;2023-04-09T03:02:20;77777.84;;;32.87
73673;BMP280;61972;19.480;-99.240;2023-04-09T03:04:46;77779.38;;;32.98
73673;BMP280;61972;19.480;-99.240;2023-04-09T03:07:13;77777.78;;;33.12
73673;BMP280;61972;19.480;-99.240;2023-04-09T03:09:42;77778.56;;;33.17
73673;BMP280;61972;19.480;-99.240;2023-04-09T03:20:55;77787.84;;;32.99
73673;BMP280;61972;19.480;-99.240;2023-04-09T03:23:22;77793.16;;;32.99
73673;BMP280;61972;19.480;-99.240;2023-04-09T03:26:08;77789.97;;;32.98
73673;BMP280;61972;19.480;-99.240;2023-04-09T03:28:34;77799.66;;;33.02
73673;BMP280;61972;19.480;-99.240;2023-04-09T03:31:00;77798.47;;;32.86
73673;BMP280;61972;19.480;-99.240;2023-04-09T03:33:26;77801.44;;;32.82
73673;BMP280;61972;19.480;-99.240;2023-04-09T03:35:53;77799.66;;;32.90
73673;BMP280;61972;19.480;-99.240;2023-04-09T03:38:19;77808.94;;;32.96
73673;BMP280;61972;19.480;-99.240;2023-04-09T03:40:45;77815.09;;;33.04
73673;BMP280;61972;19.480;-99.240;2023-04-09T03:43:12;77813.78;;;33.11
73673;BMP280;61972;19.480;-99.240;2023-04-09T03:45:38;77825.47;;;33.12
73673;BMP280;61972;19.480;-99.240;2023-04-09T03:48:04;77822.69;;;33.09
73673;BMP280;61972;19.480;-99.240;2023-04-09T03:50:30;77819.44;;;32.94
73673;BMP280;61972;19.480;-99.240;2023-04-09T03:52:56;77827.25;;;32.79
73673;BMP280;61972;19.480;-99.240;2023-04-09T03:55:23;77835.00;;;32.61
73673;BMP280;61972;19.480;-99.240;2023-04-09T03:57:49;77843.56;;;32.52
73673;BMP280;61972;19.480;-99.240;2023-04-09T04:00:15;77843.69;;;32.42
73673;BMP280;61972;19.480;-99.240;2023-04-09T04:02:41;77849.50;;;32.31
73673;BMP280;61972;19.480;-99.240;2023-04-09T04:05:07;77848.34;;;32.17
73673;BMP280;61972;19.480;-99.240;2023-04-09T04:07:44;77852.50;;;32.04
73673;BMP280;61972;19.480;-99.240;2023-04-09T04:10:11;77844.53;;;31.92
73673;BMP280;61972;19.480;-99.240;2023-04-09T04:12:42;77844.06;;;31.81
73673;BMP280;61972;19.480;-99.240;2023-04-09T04:15:09;77838.31;;;31.71
73673;BMP280;61972;19.480;-99.240;2023-04-09T04:17:38;77833.09;;;31.61
73673;BMP280;61972;19.480;-99.240;2023-04-09T04:20:04;77843.06;;;31.48
73673;BMP280;61972;19.480;-99.240;2023-04-09T04:22:35;77847.31;;;31.38
73673;BMP280;61972;19.480;-99.240;2023-04-09T04:25:06;77851.97;;;31.25
73673;BMP280;61972;19.480;-99.240;2023-04-09T04:27:32;77856.19;;;31.14
73673;BMP280;61972;19.480;-99.240;2023-04-09T04:29:58;77847.63;;;31.01
73673;BMP280;61972;19.480;-99.240;2023-04-09T04:32:27;77859.22;;;30.90
73673;BMP280;61972;19.480;-99.240;2023-04-09T04:34:54;77856.53;;;30.78
73673;BMP280;61972;19.480;-99.240;2023-04-09T04:37:20;77857.09;;;30.68
73673;BMP280;61972;19.480;-99.240;2023-04-09T04:39:46;77860.31;;;30.59
73673;BMP280;61972;19.480;-99.240;2023-04-09T04:42:13;77860.91;;;30.50
73673;BMP280;61972;19.480;-99.240;2023-04-09T04:44:39;77857.31;;;30.42
73673;BMP280;61972;19.480;-99.240;2023-04-09T04:47:05;77850.09;;;30.35
73673;BMP280;61972;19.480;-99.240;2023-04-09T04:49:31;77850.28;;;30.28
73673;BMP280;61972;19.480;-99.240;2023-04-09T04:51:57;77842.50;;;30.21
73673;BMP280;61972;19.480;-99.240;2023-04-09T04:54:23;77842.69;;;30.13
73673;BMP280;61972;19.480;-99.240;2023-04-09T04:56:49;77846.03;;;30.07
73673;BMP280;61972;19.480;-99.240;2023-04-09T04:59:16;77847.72;;;29.99
73673;BMP280;61972;19.480;-99.240;2023-04-09T05:01:42;77847.41;;;29.93
73673;BMP280;61972;19.480;-99.240;2023-04-09T05:04:08;77851.31;;;29.87
73673;BMP280;61972;19.480;-99.240;2023-04-09T05:06:34;77848.41;;;29.82
73673;BMP280;61972;19.480;-99.240;2023-04-09T05:09:00;77848.56;;;29.75
73673;BMP280;61972;19.480;-99.240;2023-04-09T05:11:35;77847.19;;;29.69
73673;BMP280;61972;19.480;-99.240;2023-04-09T05:14:05;77837.47;;;29.65
73673;BMP280;61972;19.480;-99.240;2023-04-09T05:16:31;77835.69;;;29.61
73673;BMP280;61972;19.480;-99.240;2023-04-09T05:19:11;77830.56;;;29.53
73673;BMP280;61972;19.480;-99.240;2023-04-09T05:21:40;77824.47;;;29.48
73673;BMP280;61972;19.480;-99.240;2023-04-09T05:24:06;77822.09;;;29.43
73673;BMP280;61972;19.480;-99.240;2023-04-09T05:26:33;77822.94;;;29.39
73673;BMP280;61972;19.480;-99.240;2023-04-09T05:29:05;77823.75;;;29.35
73673;BMP280;61972;19.480;-99.240;2023-04-09T05:41:02;77794.50;;;29.10
73673;BMP280;61972;19.480;-99.240;2023-04-09T05:43:31;77794.25;;;29.05
73673;BMP280;61972;19.480;-99.240;2023-04-09T05:45:58;77796.19;;;29.02
73673;BMP280;61972;19.480;-99.240;2023-04-09T05:48:24;77784.97;;;28.99
73673;BMP280;61972;19.480;-99.240;2023-04-09T05:50:53;77781.78;;;28.98
73673;BMP280;61972;19.480;-99.240;2023-04-09T05:53:23;77777.47;;;28.97
73673;BMP280;61972;19.480;-99.240;2023-04-09T05:55:49;77784.25;;;28.96
73673;BMP280;61972;19.480;-99.240;2023-04-09T05:58:18;77785.78;;;28.95
73673;BMP280;61972;19.480;-99.240;2023-04-09T06:00:47;77780.94;;;28.93
73673;BMP280;61972;19.480;-99.240;2023-04-09T06:03:18;77785.09;;;28.92
73673;BMP280;61972;19.480;-99.240;2023-04-09T06:05:45;77798.66;;;28.90
73673;BMP280;61972;19.480;-99.240;2023-04-09T06:08:14;77803.34;;;28.89
73673;BMP280;61972;19.480;-99.240;2023-04-09T06:11:11;77809.19;;;28.90
73673;BMP280;61972;19.480;-99.240;2023-04-09T06:14:16;77802.81;;;28.89
73673;BMP280;61972;19.480;-99.240;2023-04-09T06:20:13;77810.56;;;28.86
73673;BMP280;61972;19.480;-99.240;2023-04-09T06:22:42;77810.97;;;28.84
73673;BMP280;61972;19.480;-99.240;2023-04-09T06:25:16;77817.75;;;28.83
73673;BMP280;61972;19.480;-99.240;2023-04-09T06:27:43;77813.03;;;28.83
73673;BMP280;61972;19.480;-99.240;2023-04-09T06:30:24;77823.56;;;28.83
73673;BMP280;61972;19.480;-99.240;2023-04-09T06:32:50;77822.03;;;28.84
73673;BMP280;61972;19.480;-99.240;2023-04-09T06:35:17;77818.88;;;28.84
73673;BMP280;61972;19.480;-99.240;2023-04-09T06:37:43;77816.09;;;28.81
73673;BMP280;61972;19.480;-99.240;2023-04-09T06:40:09;77813.03;;;28.83
73673;BMP280;61972;19.480;-99.240;2023-04-09T07:11:58;77810.16;;;28.98
73673;BMP280;61972;19.480;-99.240;2023-04-09T07:14:24;77804.47;;;29.00
73673;BMP280;61972;19.480;-99.240;2023-04-09T07:16:50;77802.97;;;29.01
73673;BMP280;61972;19.480;-99.240;2023-04-09T07:19:16;77802.00;;;29.02
73673;BMP280;61972;19.480;-99.240;2023-04-09T07:21:43;77805.16;;;29.03
73673;BMP280;61972;19.480;-99.240;2023-04-09T07:24:12;77802.53;;;29.03
73673;BMP280;61972;19.480;-99.240;2023-04-09T07:26:41;77804.78;;;29.05
73673;BMP280;61972;19.480;-99.240;2023-04-09T07:29:08;77798.94;;;29.05
73673;BMP280;61972;19.480;-99.240;2023-04-09T07:31:37;77804.22;;;29.05
73673;BMP280;61972;19.480;-99.240;2023-04-09T07:34:12;77799.50;;;29.05
73673;BMP280;61972;19.480;-99.240;2023-04-09T07:36:49;77796.88;;;29.05
73673;BMP280;61972;19.480;-99.240;2023-04-09T07:56:41;77769.31;;;29.01
73673;BMP280;61972;19.480;-99.240;2023-04-09T08:02:41;77751.44;;;29.02
73673;BMP280;61972;19.480;-99.240;2023-04-09T08:05:19;77757.69;;;29.00
73673;BMP280;61972;19.480;-99.240;2023-04-09T08:11:32;77759.75;;;29.00
73673;BMP280;61972;19.480;-99.240;2023-04-09T08:13:58;77762.38;;;29.00
73673;BMP280;61972;19.480;-99.240;2023-04-09T08:17:18;77758.22;;;29.01
73673;BMP280;61972;19.480;-99.240;2023-04-09T08:19:53;77762.38;;;29.00
73673;BMP280;61972;19.480;-99.240;2023-04-09T08:43:18;77741.75;;;28.88
73673;BMP280;61972;19.480;-99.240;2023-04-09T08:45:52;77733.28;;;28.88
73673;BMP280;61972;19.480;-99.240;2023-04-09T08:48:23;77730.53;;;28.85
73673;BMP280;61972;19.480;-99.240;2023-04-09T08:50:50;77740.50;;;28.84
73673;BMP280;61972;19.480;-99.240;2023-04-09T08:53:17;77729.97;;;28.84
73673;BMP280;61972;19.480;-99.240;2023-04-09T08:55:47;77740.50;;;28.84
73673;BMP280;61972;19.480;-99.240;2023-04-09T10:14:24;77734.56;;;28.16
73673;BMP280;61972;19.480;-99.240;2023-04-09T10:17:00;77743.16;;;28.19
73673;BMP280;61972;19.480;-99.240;2023-04-09T10:19:41;77745.38;;;28.21
73673;BMP280;61972;19.480;-99.240;2023-04-09T10:26:25;77746.19;;;28.17
73673;BMP280;61972;19.480;-99.240;2023-04-09T11:36:21;77778.31;;;27.64
73673;BMP280;61972;19.480;-99.240;2023-04-09T11:39:01;77780.81;;;27.61
73673;BMP280;61972;19.480;-99.240;2023-04-09T11:41:33;77789.06;;;27.59
73673;BMP280;61972;19.480;-99.240;2023-04-09T12:08:52;77805.78;;;27.41
73673;BMP280;61972;19.480;-99.240;2023-04-09T12:11:29;77805.25;;;27.40
73673;BMP280;61972;19.480;-99.240;2023-04-09T12:41:42;77834.53;;;27.21
73673;BMP280;61972;19.480;-99.240;2023-04-09T15:24:56;77926.28;;;26.87
73673;BMP280;61972;19.480;-99.240;2023-04-09T15:27:25;77930.03;;;26.88
73673;BMP280;61972;19.480;-99.240;2023-04-09T16:04:48;77906.75;;;26.93
73673;BMP280;61972;19.480;-99.240;2023-04-09T16:07:16;77912.00;;;26.93
73673;BMP280;61972;19.480;-99.240;2023-04-09T16:09:56;77908.25;;;26.92
73673;BMP280;61972;19.480;-99.240;2023-04-09T16:16:05;77901.81;;;26.99
73673;BMP280;61972;19.480;-99.240;2023-04-09T16:18:55;77907.06;;;26.99
73673;BMP280;61972;19.480;-99.240;2023-04-09T16:21:39;77901.81;;;26.99
73673;BMP280;61972;19.480;-99.240;2023-04-09T16:24:13;77902.94;;;27.00
73673;BMP280;61972;19.480;-99.240;2023-04-09T16:26:43;77901.06;;;27.03
73673;BMP280;61972;19.480;-99.240;2023-04-09T16:29:22;77893.91;;;27.06
73673;BMP280;61972;19.480;-99.240;2023-04-09T17:30:20;77836.94;;;27.69
73673;BMP280;61972;19.480;-99.240;2023-04-09T17:32:49;77829.75;;;27.73
73673;BMP280;61972;19.480;-99.240;2023-04-09T17:48:50;77816.31;;;27.94
73673;BMP280;61972;19.480;-99.240;2023-04-09T17:58:29;77800.22;;;28.06
73673;BMP280;61972;19.480;-99.240;2023-04-09T18:01:05;77803.13;;;28.11
73673;BMP280;61972;19.480;-99.240;2023-04-09T18:03:56;77800.09;;;28.13
73673;BMP280;61972;19.480;-99.240;2023-04-09T18:10:30;77790.44;;;28.19
73673;BMP280;61972;19.480;-99.240;2023-04-09T18:13:37;77779.66;;;28.23
73673;BMP280;61972;19.480;-99.240;2023-04-09T18:48:19;77724.31;;;28.67
73673;BMP280;61972;19.480;-99.240;2023-04-09T18:50:48;77726.50;;;28.69
73673;BMP280;61972;19.480;-99.240;2023-04-09T18:53:40;77707.28;;;28.73
73673;BMP280;61972;19.480;-99.240;2023-04-09T18:56:29;77707.00;;;28.78
73673;BMP280;61972;19.480;-99.240;2023-04-09T18:58:59;77705.63;;;28.81
73673;BMP280;61972;19.480;-99.240;2023-04-09T19:01:25;77698.41;;;28.84
73673;BMP280;61972;19.480;-99.240;2023-04-09T19:03:51;77693.44;;;28.90
73673;BMP280;61972;19.480;-99.240;2023-04-09T19:06:18;77691.50;;;28.93
73673;BMP280;61972;19.480;-99.240;2023-04-09T19:08:46;77689.56;;;28.96
73673;BMP280;61972;19.480;-99.240;2023-04-09T19:11:20;77690.25;;;28.99
73673;BMP280;61972;19.480;-99.240;2023-04-09T19:14:09;77685.69;;;29.02
73673;BMP280;61972;19.480;-99.240;2023-04-09T19:16:38;77682.22;;;29.06
73673;BMP280;61972;19.480;-99.240;2023-04-09T19:19:04;77682.88;;;29.09
73673;BMP280;61972;19.480;-99.240;2023-04-09T19:21:30;77683.44;;;29.10
73673;BMP280;61972;19.480;-99.240;2023-04-09T19:23:56;77680.41;;;29.12
73673;BMP280;61972;19.480;-99.240;2023-04-09T19:26:28;77676.38;;;29.15
73673;BMP280;61972;19.480;-99.240;2023-04-09T19:28:54;77668.09;;;29.17
73673;BMP280;61972;19.480;-99.240;2023-04-09T19:34:33;77661.13;;;29.16
73673;BMP280;61972;19.480;-99.240;2023-04-09T19:40:45;77659.06;;;29.16
73673;BMP280;61972;19.480;-99.240;2023-04-09T19:48:47;77641.19;;;29.27
73673;BMP280;61972;19.480;-99.240;2023-04-09T19:51:16;77630.91;;;29.32
73673;BMP280;61972;19.480;-99.240;2023-04-09T19:53:43;77628.97;;;29.35
73673;BMP280;61972;19.480;-99.240;2023-04-09T19:56:09;77620.22;;;29.39
73673;BMP280;61972;19.480;-99.240;2023-04-09T19:58:35;77622.13;;;29.46
73673;BMP280;61972;19.480;-99.240;2023-04-09T20:01:01;77615.47;;;29.49
73673;BMP280;61972;19.480;-99.240;2023-04-09T20:03:29;77612.41;;;29.51
73673;BMP280;61972;19.480;-99.240;2023-04-09T20:05:56;77612.00;;;29.53
73673;BMP280;61972;19.480;-99.240;2023-04-09T20:08:22;77611.56;;;29.55
73673;BMP280;61972;19.480;-99.240;2023-04-09T20:10:48;77601.72;;;29.58
73673;BMP280;61972;19.480;-99.240;2023-04-09T20:13:14;77602.97;;;29.62
73673;BMP280;61972;19.480;-99.240;2023-04-09T20:15:40;77603.06;;;29.65
73673;BMP280;61972;19.480;-99.240;2023-04-09T20:18:07;77597.94;;;29.67
73673;BMP280;61972;19.480;-99.240;2023-04-09T20:20:33;77594.34;;;29.69
73673;BMP280;61972;19.480;-99.240;2023-04-09T20:22:59;77592.25;;;29.69
73673;BMP280;61972;19.480;-99.240;2023-04-09T20:25:26;77591.81;;;29.71
73673;BMP280;61972;19.480;-99.240;2023-04-09T20:27:58;77589.75;;;29.72
73673;BMP280;61972;19.480;-99.240;2023-04-09T20:30:24;77591.50;;;29.76
73673;BMP280;61972;19.480;-99.240;2023-04-09T20:32:50;77588.47;;;29.78
73673;BMP280;61972;19.480;-99.240;2023-04-09T20:35:16;77588.47;;;29.78
73673;BMP280;61972;19.480;-99.240;2023-04-09T20:37:43;77585.41;;;29.80
73673;BMP280;61972;19.480;-99.240;2023-04-09T20:40:38;77583.47;;;29.83
73673;BMP280;61972;19.480;-99.240;2023-04-09T20:43:10;77580.63;;;29.90
73673;BMP280;61972;19.480;-99.240;2023-04-09T20:45:37;77574.94;;;29.92
73673;BMP280;61972;19.480;-99.240;2023-04-09T20:48:03;77572.88;;;29.93
73673;BMP280;61972;19.480;-99.240;2023-04-09T20:50:29;77573.00;;;29.95
73673;BMP280;61972;19.480;-99.240;2023-04-09T20:52:56;77561.44;;;29.97
73673;BMP280;61972;19.480;-99.240;2023-04-09T20:55:23;77562.03;;;29.97
73673;BMP280;61972;19.480;-99.240;2023-04-09T20:57:49;77557.97;;;30.01
73673;BMP280;61972;19.480;-99.240;2023-04-09T21:00:16;77560.72;;;30.04
73673;BMP280;61972;19.480;-99.240;2023-04-09T21:02:43;77563.03;;;30.08
73673;BMP280;61972;19.480;-99.240;2023-04-09T21:05:09;77551.53;;;30.10
73673;BMP280;61972;19.480;-99.240;2023-04-09T21:07:35;77552.22;;;30.13
73673;BMP280;61972;19.480;-99.240;2023-04-09T21:10:02;77545.94;;;30.14
73673;BMP280;61972;19.480;-99.240;2023-04-09T21:12:30;77545.53;;;30.16
73673;BMP280;61972;19.480;-99.240;2023-04-09T21:14:58;77540.38;;;30.19
73673;BMP280;61972;19.480;-99.240;2023-04-09T21:17:26;77538.84;;;30.20
73673;BMP280;61972;19.480;-99.240;2023-04-09T21:20:08;77535.22;;;30.22
73673;BMP280;61972;19.480;-99.240;2023-04-09T21:22:37;77542.16;;;30.23
73673;BMP280;61972;19.480;-99.240;2023-04-09T21:25:04;77538.53;;;30.25
73673;BMP280;61972;19.480;-99.240;2023-04-09T21:27:30;77539.09;;;30.25
73673;BMP280;61972;19.480;-99.240;2023-04-09T21:30:13;77551.16;;;30.24
73673;BMP280;61972;19.480;-99.240;2023-04-09T21:33:03;77542.16;;;30.23
73673;BMP280;61972;19.480;-99.240;2023-04-09T22:03:42;77546.63;;;30.17
73673;BMP280;61972;19.480;-99.240;2023-04-09T22:12:47;77541.91;;;30.18
73673;BMP280;61972;19.480;-99.240;2023-04-09T22:15:39;77547.19;;;30.18
73673;BMP280;61972;19.480;-99.240;2023-04-09T22:18:06;77556.59;;;30.17
73673;BMP280;61972;19.480;-99.240;2023-04-09T22:20:40;77553.97;;;30.17
73673;BMP280;61972;19.480;-99.240;2023-04-09T22:23:35;77549.13;;;30.15
73673;BMP280;61972;19.480;-99.240;2023-04-09T22:38:25;77533.88;;;30.15
73673;BMP280;61972;19.480;-99.240;2023-04-09T22:41:07;77533.88;;;30.15
73673;BMP280;61972;19.480;-99.240;2023-04-09T22:43:33;77533.31;;;30.15
73673;BMP280;61972;19.480;-99.240;2023-04-09T22:45:59;77533.31;;;30.15
73673;BMP280;61972;19.480;-99.240;2023-04-09T22:48:35;77549.13;;;30.15
73673;BMP280;61972;19.480;-99.240;2023-04-09T22:51:04;77544.97;;;30.16
73673;BMP280;61972;19.480;-99.240;2023-04-09T22:53:30;77550.81;;;30.16
73673;BMP280;61972;19.480;-99.240;2023-04-09T22:56:09;77552.34;;;30.15
73673;BMP280;61972;19.480;-99.240;2023-04-09T22:58:35;77545.53;;;30.16
73673;BMP280;61972;19.480;-99.240;2023-04-09T23:01:05;77553.97;;;30.17
73673;BMP280;61972;19.480;-99.240;2023-04-09T23:03:40;77560.34;;;30.18
73673;BMP280;61972;19.480;-99.240;2023-04-09T23:06:24;77556.09;;;30.16
73673;BMP280;61972;19.480;-99.240;2023-04-09T23:09:00;77567.16;;;30.17
73673;BMP280;61972;19.480;-99.240;2023-04-09T23:15:15;77572.84;;;30.15
73673;BMP280;61972;19.480;-99.240;2023-04-09T23:21:32;77572.19;;;30.12
73673;BMP280;61972;19.480;-99.240;2023-04-09T23:24:20;77576.34;;;30.11
73673;BMP280;61972;19.480;-99.240;2023-04-09T23:26:46;77581.06;;;30.10
73673;BMP280;61972;19.480;-99.240;2023-04-09T23:29:12;77596.78;;;30.08
73673;BMP280;61972;19.480;-99.240;2023-04-09T23:31:44;77593.88;;;30.03
73673;BMP280;61972;19.480;-99.240;2023-04-09T23:34:10;77607.38;;;29.98
73673;BMP280;61972;19.480;-99.240;2023-04-09T23:36:37;77582.53;;;29.97
73673;BMP280;61972;19.480;-99.240;2023-04-09T23:39:03;77596.69;;;29.95
73673;BMP280;61972;19.480;-99.240;2023-04-09T23:55:06;77621.34;;;30.04
